EST,Max TemperatureF,Mean TemperatureF,Min TemperatureF,Max Dew PointF,MeanDew PointF,Min DewpointF,Max Humidity, Mean Humidity, Min Humidity, Max Sea Level PressureIn, Mean Sea Level PressureIn, Min Sea Level PressureIn, Max VisibilityMiles, Mean VisibilityMiles, Min VisibilityMiles, Max Wind SpeedMPH, Mean Wind SpeedMPH, Max Gust SpeedMPH,PrecipitationIn, CloudCover, Events, WindDirDegrees
2012-11-1,67,50,32,29,24,17,75,42,15,29.94,29.87,29.82,10,10,7,20,7,25,0.00,0,,273
2012-11-2,76,56,36,44,34,22,82,47,23,29.99,29.93,29.85,10,10,5,23,7,29,0.00,0,,270
2012-11-3,74,58,42,47,40,34,89,55,25,30.13,30.05,29.99,10,10,8,10,3,13,0.00,0,,155
2012-11-4,84,67,49,59,52,46,96,72,31,30.02,29.96,29.88,10,8,2,24,5,33,0.07,1,Rain,275
2012-11-5,65,56,47,51,41,35,89,65,34,30.07,30.02,29.96,10,10,9,16,5,21,0.00,2,,48
2012-11-6,51,45,39,41,37,32,85,69,52,30.05,29.99,29.94,10,10,3,16,7,23,0.05,5,Rain,40
2012-11-7,53,46,38,40,36,32,92,74,59,29.99,29.93,29.88,10,9,6,12,5,16,T,4,,325
2012-11-8,66,52,37,41,34,24,92,64,20,30.16,30.09,30.00,10,8,4,13,4,18,0.00,0,,312
2012-11-9,70,52,34,39,33,26,89,59,20,30.30,30.24,30.16,10,10,7,9,1,13,0.00,0,,340
2012-11-10,74,55,35,41,36,32,92,60,23,30.39,30.34,30.28,10,9,6,9,1,12,0.00,0,,222
2012-11-11,75,58,40,57,49,38,89,75,49,30.45,30.40,30.37,10,9,6,10,3,14,0.00,2,,87
2012-11-12,78,68,57,63,60,56,93,84,56,30.36,30.27,30.18,10,7,1,17,3,22,0.05,5,Rain,169
2012-11-13,66,59,51,63,55,45,100,89,77,30.33,30.24,30.17,10,7,2,17,7,22,0.01,7,Rain,26
2012-11-14,52,50,47,46,39,35,86,67,54,30.41,30.33,30.27,10,10,10,16,9,22,0.00,8,,46
2012-11-15,50,46,42,44,41,37,96,84,56,30.28,30.25,30.22,10,7,2,17,8,24,1.05,8,Rain,24
2012-11-16,60,53,45,45,42,39,86,74,51,30.33,30.28,30.24,10,10,7,13,6,18,0.00,6,,30
2012-11-17,57,49,41,39,37,32,82,61,47,30.40,30.36,30.32,10,10,10,17,9,23,0.00,3,,37
2012-11-18,55,53,50,49,43,37,83,73,54,30.36,30.30,30.25,10,9,4,18,11,26,0.24,8,Rain,16
2012-11-19,67,60,53,50,47,45,77,70,56,30.26,30.20,30.15,10,10,10,17,9,24,0.00,6,,22
2012-11-20,66,56,45,47,45,41,93,74,52,30.18,30.11,30.05,10,10,8,12,5,16,0.00,0,,12
2012-11-21,66,53,39,45,40,35,96,73,34,30.16,30.12,30.08,10,9,6,15,3,20,0.00,0,,11
2012-11-22,65,51,37,37,33,29,85,62,26,30.25,30.19,30.15,10,10,10,15,4,21,0.00,0,,360
2012-11-23,71,53,34,43,38,31,89,62,35,30.19,30.08,29.95,10,10,9,16,5,21,0.00,0,,230
2012-11-24,61,49,36,43,33,26,82,55,29,30.11,30.03,29.95,10,10,10,13,4,21,0.00,0,,315
2012-11-25,59,45,31,32,26,22,82,53,26,30.22,30.15,30.09,10,10,10,10,3,14,0.00,0,,86
2012-11-26,69,50,30,33,29,22,92,56,17,30.25,30.19,30.14,10,10,8,8,2,12,0.00,0,,212
2012-11-27,59,49,38,50,43,32,96,79,54,30.20,30.17,30.10,10,8,2,10,2,12,0.10,6,Rain,263
2012-11-28,59,48,36,49,42,34,92,77,44,30.40,30.28,30.18,10,8,3,14,5,17,0.00,4,,37
2012-11-29,60,45,30,37,30,24,92,65,25,30.48,30.42,30.38,10,8,5,10,2,14,0.00,0,,73
2012-11-30,66,50,34,45,38,32,92,71,42,30.42,30.36,30.30,10,10,7,7,1,9,0.00,3,,40